sensor_id;sensor_type;location;lat;lon;timestamp;pressure;altitude;pressure_sealevel;temperature;humidity
68179;BME280;54998;42.656;23.382;2023-03-11T00:00:26;93084.06;;;9.14;87.86
68179;BME280;54998;42.656;23.382;2023-03-11T00:02:53;93101.16;;;8.99;88.41
68179;BME280;54998;42.656;23.382;2023-03-11T00:05:22;93081.16;;;8.79;89.84
68179;BME280;54998;42.656;23.382;2023-03-11T00:07:48;93105.50;;;8.75;90.36
68179;BME280;54998;42.656;23.382;2023-03-11T00:10:15;93123.84;;;8.56;91.57
68179;BME280;54998;42.656;23.382;2023-03-11T00:12:43;93119.75;;;8.47;92.60
68179;BME280;54998;42.656;23.382;2023-03-11T00:15:09;93103.56;;;8.23;91.78
68179;BME280;54998;42.656;23.382;2023-03-11T00:17:34;93084.66;;;8.09;91.10
68179;BME280;54998;42.656;23.382;2023-03-11T00:20:00;93100.94;;;8.08;90.19
68179;BME280;54998;42.656;23.382;2023-03-11T00:22:25;93097.22;;;7.88;90.01
68179;BME280;54998;42.656;23.382;2023-03-11T00:24:50;93089.84;;;7.93;89.52
68179;BME280;54998;42.656;23.382;2023-03-11T00:27:16;93102.97;;;7.81;89.55
68179;BME280;54998;42.656;23.382;2023-03-11T00:29:41;93098.06;;;7.72;89.79
68179;BME280;54998;42.656;23.382;2023-03-11T00:32:07;93089.84;;;7.53;90.17
68179;BME280;54998;42.656;23.382;2023-03-11T00:34:32;93083.75;;;7.63;90.38
68179;BME280;54998;42.656;23.382;2023-03-11T00:36:57;93082.19;;;7.53;90.39
68179;BME280;54998;42.656;23.382;2023-03-11T00:39:23;93079.50;;;7.47;90.57
68179;BME280;54998;42.656;23.382;2023-03-11T00:41:48;93066.88;;;7.53;90.42
68179;BME280;54998;42.656;23.382;2023-03-11T00:44:15;93066.72;;;7.55;90.45
68179;BME280;54998;42.656;23.382;2023-03-11T00:46:40;93087.66;;;7.42;90.61
68179;BME280;54998;42.656;23.382;2023-03-11T00:49:05;93084.44;;;7.48;91.51
68179;BME280;54998;42.656;23.382;2023-03-11T00:51:31;93083.63;;;7.48;91.89
68179;BME280;54998;42.656;23.382;2023-03-11T00:53:56;93076.59;;;7.50;91.81
68179;BME280;54998;42.656;23.382;2023-03-11T00:56:21;93071.94;;;7.61;92.19
68179;BME280;54998;42.656;23.382;2023-03-11T00:58:47;93055.16;;;7.67;92.56
68179;BME280;54998;42.656;23.382;2023-03-11T01:01:15;93044.50;;;7.64;91.80
68179;BME280;54998;42.656;23.382;2023-03-11T01:03:42;93039.19;;;7.65;91.51
68179;BME280;54998;42.656;23.382;2023-03-11T01:06:07;93039.38;;;7.64;91.34
68179;BME280;54998;42.656;23.382;2023-03-11T01:08:33;93044.03;;;7.60;92.13
68179;BME280;54998;42.656;23.382;2023-03-11T01:10:59;93045.75;;;7.68;91.74
68179;BME280;54998;42.656;23.382;2023-03-11T01:13:27;93036.50;;;7.67;91.60
68179;BME280;54998;42.656;23.382;2023-03-11T01:15:53;93042.38;;;7.67;91.97
68179;BME280;54998;42.656;23.382;2023-03-11T01:18:18;93035.63;;;7.43;92.54
68179;BME280;54998;42.656;23.382;2023-03-11T01:20:48;93034.06;;;7.34;92.84
68179;BME280;54998;42.656;23.382;2023-03-11T01:23:17;93037.72;;;7.39;92.96
68179;BME280;54998;42.656;23.382;2023-03-11T01:25:43;93020.78;;;7.47;92.88
68179;BME280;54998;42.656;23.382;2023-03-11T01:28:08;93008.09;;;7.30;93.23
68179;BME280;54998;42.656;23.382;2023-03-11T01:30:36;93005.72;;;7.29;93.76
68179;BME280;54998;42.656;23.382;2023-03-11T01:33:02;93009.81;;;7.38;93.41
68179;BME280;54998;42.656;23.382;2023-03-11T01:35:29;93001.19;;;7.39;92.52
68179;BME280;54998;42.656;23.382;2023-03-11T01:37:55;92989.69;;;7.43;92.04
68179;BME280;54998;42.656;23.382;2023-03-11T01:42:50;92974.06;;;7.46;91.15
68179;BME280;54998;42.656;23.382;2023-03-11T01:47:53;92948.75;;;7.28;91.54
68179;BME280;54998;42.656;23.382;2023-03-11T01:50:18;92944.78;;;7.26;92.30
68179;BME280;54998;42.656;23.382;2023-03-11T01:52:43;92941.47;;;7.25;92.94
68179;BME280;54998;42.656;23.382;2023-03-11T01:55:12;92951.56;;;7.10;93.40
68179;BME280;54998;42.656;23.382;2023-03-11T01:57:40;92961.25;;;7.15;93.55
68179;BME280;54998;42.656;23.382;2023-03-11T02:00:08;92976.38;;;7.25;93.61
68179;BME280;54998;42.656;23.382;2023-03-11T02:02:54;92981.63;;;7.31;93.28
68179;BME280;54998;42.656;23.382;2023-03-11T02:05:22;93000.94;;;7.26;93.50
68179;BME280;54998;42.656;23.382;2023-03-11T02:07:49;93005.22;;;7.33;93.52
68179;BME280;54998;42.656;23.382;2023-03-11T02:10:16;93005.03;;;7.35;93.89
68179;BME280;54998;42.656;23.382;2023-03-11T02:12:42;93002.19;;;7.30;94.31
68179;BME280;54998;42.656;23.382;2023-03-11T02:15:09;93001.56;;;7.28;93.93
68179;BME280;54998;42.656;23.382;2023-03-11T02:17:37;93001.25;;;7.23;94.13
68179;BME280;54998;42.656;23.382;2023-03-11T02:20:44;93012.75;;;7.27;94.65
68179;BME280;54998;42.656;23.382;2023-03-11T02:23:13;93029.81;;;7.18;94.99
68179;BME280;54998;42.656;23.382;2023-03-11T02:25:51;93033.81;;;7.12;95.29
68179;BME280;54998;42.656;23.382;2023-03-11T02:28:20;93025.06;;;7.07;95.74
68179;BME280;54998;42.656;23.382;2023-03-11T02:30:46;93030.28;;;7.13;95.55
68179;BME280;54998;42.656;23.382;2023-03-11T02:33:13;93024.59;;;7.11;95.13
68179;BME280;54998;42.656;23.382;2023-03-11T02:35:39;93026.16;;;7.12;95.15
68179;BME280;54998;42.656;23.382;2023-03-11T02:38:05;93029.69;;;7.11;94.93
68179;BME280;54998;42.656;23.382;2023-03-11T02:40:37;93022.97;;;7.10;94.58
68179;BME280;54998;42.656;23.382;2023-03-11T02:43:08;93020.44;;;7.10;94.99
68179;BME280;54998;42.656;23.382;2023-03-11T02:45:35;93028.72;;;7.12;94.98
68179;BME280;54998;42.656;23.382;2023-03-11T02:48:06;93029.22;;;7.08;94.52
68179;BME280;54998;42.656;23.382;2023-03-11T02:50:33;93039.63;;;6.90;95.38
68179;BME280;54998;42.656;23.382;2023-03-11T02:53:02;93040.56;;;6.97;96.08
68179;BME280;54998;42.656;23.382;2023-03-11T02:55:28;93053.31;;;6.89;96.36
68179;BME280;54998;42.656;23.382;2023-03-11T02:57:53;93056.69;;;6.81;96.77
68179;BME280;54998;42.656;23.382;2023-03-11T03:00:19;93042.16;;;6.90;97.34
68179;BME280;54998;42.656;23.382;2023-03-11T03:02:45;93041.03;;;7.01;97.46
68179;BME280;54998;42.656;23.382;2023-03-11T03:05:11;93045.16;;;7.02;97.01
68179;BME280;54998;42.656;23.382;2023-03-11T03:07:37;93044.22;;;6.94;97.19
68179;BME280;54998;42.656;23.382;2023-03-11T03:10:06;93038.78;;;6.97;97.27
68179;BME280;54998;42.656;23.382;2023-03-11T03:12:31;93038.78;;;7.06;96.81
68179;BME280;54998;42.656;23.382;2023-03-11T03:14:57;93048.50;;;7.10;95.96
68179;BME280;54998;42.656;23.382;2023-03-11T03:17:23;93052.00;;;7.09;95.48
68179;BME280;54998;42.656;23.382;2023-03-11T03:19:48;93049.47;;;7.01;95.42
68179;BME280;54998;42.656;23.382;2023-03-11T03:22:14;93048.81;;;7.07;95.03
68179;BME280;54998;42.656;23.382;2023-03-11T03:24:39;93046.28;;;7.07;94.98
68179;BME280;54998;42.656;23.382;2023-03-11T03:27:05;93041.47;;;7.12;94.20
68179;BME280;54998;42.656;23.382;2023-03-11T03:29:31;93044.81;;;7.13;94.16
68179;BME280;54998;42.656;23.382;2023-03-11T03:31:56;93037.78;;;7.23;93.67
68179;BME280;54998;42.656;23.382;2023-03-11T03:34:21;93041.25;;;7.30;93.17
68179;BME280;54998;42.656;23.382;2023-03-11T03:36:47;93036.00;;;7.32;92.43
68179;BME280;54998;42.656;23.382;2023-03-11T03:39:12;93040.63;;;7.28;92.82
68179;BME280;54998;42.656;23.382;2023-03-11T03:41:37;93033.09;;;7.35;92.75
68179;BME280;54998;42.656;23.382;2023-03-11T03:44:03;93036.00;;;7.32;92.50
68179;BME280;54998;42.656;23.382;2023-03-11T03:46:28;93042.38;;;7.28;92.92
68179;BME280;54998;42.656;23.382;2023-03-11T03:48:54;93032.94;;;7.36;92.97
68179;BME280;54998;42.656;23.382;2023-03-11T03:51:19;93032.41;;;7.49;92.04
68179;BME280;54998;42.656;23.382;2023-03-11T03:53:44;93029.56;;;7.44;92.04
68179;BME280;54998;42.656;23.382;2023-03-11T03:56:14;93031.41;;;7.58;91.45
68179;BME280;54998;42.656;23.382;2023-03-11T03:58:41;93014.97;;;7.61;91.30
68179;BME280;54998;42.656;23.382;2023-03-11T04:01:07;93016.28;;;7.57;91.58
68179;BME280;54998;42.656;23.382;2023-03-11T04:03:33;93030.75;;;7.65;91.25
68179;BME280;54998;42.656;23.382;2023-03-11T04:06:12;93014.13;;;7.37;92.03
68179;BME280;54998;42.656;23.382;2023-03-11T04:08:39;93033.69;;;7.53;92.08
68179;BME280;54998;42.656;23.382;2023-03-11T04:11:05;93027.72;;;7.61;91.63
68179;BME280;54998;42.656;23.382;2023-03-11T04:13:30;93036.38;;;7.52;91.97
68179;BME280;54998;42.656;23.382;2023-03-11T04:15:55;93038.00;;;7.53;91.37
68179;BME280;54998;42.656;23.382;2023-03-11T04:18:21;93025.53;;;7.58;90.77
68179;BME280;54998;42.656;23.382;2023-03-11T04:20:47;93026.16;;;7.60;90.80
68179;BME280;54998;42.656;23.382;2023-03-11T04:23:12;93034.09;;;7.65;91.18
68179;BME280;54998;42.656;23.382;2023-03-11T04:25:38;93035.25;;;7.54;90.93
68179;BME280;54998;42.656;23.382;2023-03-11T04:28:03;93035.44;;;7.53;91.34
68179;BME280;54998;42.656;23.382;2023-03-11T04:30:29;93046.22;;;7.63;91.13
68179;BME280;54998;42.656;23.382;2023-03-11T04:32:54;93036.66;;;7.65;90.99
68179;BME280;54998;42.656;23.382;2023-03-11T04:35:19;93048.91;;;7.70;89.84
68179;BME280;54998;42.656;23.382;2023-03-11T04:37:45;93030.56;;;7.74;89.23
68179;BME280;54998;42.656;23.382;2023-03-11T04:40:10;93043.16;;;7.76;89.25
68179;BME280;54998;42.656;23.382;2023-03-11T04:42:36;93037.94;;;7.61;89.94
68179;BME280;54998;42.656;23.382;2023-03-11T04:45:02;93037.13;;;7.69;89.04
68179;BME280;54998;42.656;23.382;2023-03-11T04:47:27;93031.31;;;7.83;86.77
68179;BME280;54998;42.656;23.382;2023-03-11T04:49:53;93030.50;;;7.82;87.28
68179;BME280;54998;42.656;23.382;2023-03-11T04:52:20;93029.03;;;7.88;87.35
68179;BME280;54998;42.656;23.382;2023-03-11T04:54:46;93028.69;;;7.91;87.22
68179;BME280;54998;42.656;23.382;2023-03-11T04:57:11;93033.94;;;7.98;84.37
68179;BME280;54998;42.656;23.382;2023-03-11T04:59:37;93033.13;;;7.97;81.11
68179;BME280;54998;42.656;23.382;2023-03-11T05:02:03;93044.97;;;8.21;77.65
68179;BME280;54998;42.656;23.382;2023-03-11T05:04:28;93046.63;;;8.14;79.60
68179;BME280;54998;42.656;23.382;2023-03-11T05:06:54;93041.97;;;8.18;81.36
68179;BME280;54998;42.656;23.382;2023-03-11T05:09:19;93046.41;;;8.24;77.04
68179;BME280;54998;42.656;23.382;2023-03-11T05:11:44;93053.97;;;8.40;77.12
68179;BME280;54998;42.656;23.382;2023-03-11T05:14:10;93048.03;;;8.48;77.55
68179;BME280;54998;42.656;23.382;2023-03-11T05:16:35;93059.19;;;8.47;77.45
68179;BME280;54998;42.656;23.382;2023-03-11T05:19:00;93064.88;;;8.57;75.19
68179;BME280;54998;42.656;23.382;2023-03-11T05:21:26;93069.41;;;8.70;75.45
68179;BME280;54998;42.656;23.382;2023-03-11T05:23:51;93065.56;;;8.74;73.90
68179;BME280;54998;42.656;23.382;2023-03-11T05:26:17;93072.19;;;8.83;69.99
68179;BME280;54998;42.656;23.382;2023-03-11T05:28:42;93067.78;;;8.92;70.04
68179;BME280;54998;42.656;23.382;2023-03-11T05:31:09;93063.13;;;8.96;70.78
68179;BME280;54998;42.656;23.382;2023-03-11T05:33:34;93076.28;;;9.08;68.15
68179;BME280;54998;42.656;23.382;2023-03-11T05:36:05;93072.78;;;9.09;66.50
68179;BME280;54998;42.656;23.382;2023-03-11T05:38:31;93066.06;;;9.22;68.68
68179;BME280;54998;42.656;23.382;2023-03-11T05:40:56;93062.28;;;9.18;65.63
68179;BME280;54998;42.656;23.382;2023-03-11T05:43:21;93073.94;;;9.36;64.38
68179;BME280;54998;42.656;23.382;2023-03-11T05:45:47;93087.81;;;9.41;63.66
68179;BME280;54998;42.656;23.382;2023-03-11T05:48:12;93091.69;;;9.37;63.59
68179;BME280;54998;42.656;23.382;2023-03-11T05:50:37;93089.03;;;9.45;63.84
68179;BME280;54998;42.656;23.382;2023-03-11T05:53:03;93093.97;;;9.47;62.79
68179;BME280;54998;42.656;23.382;2023-03-11T05:55:28;93102.56;;;9.54;62.81
68179;BME280;54998;42.656;23.382;2023-03-11T05:57:54;93109.09;;;9.57;62.35
68179;BME280;54998;42.656;23.382;2023-03-11T06:00:19;93112.00;;;9.69;62.25
68179;BME280;54998;42.656;23.382;2023-03-11T06:02:45;93122.84;;;9.71;62.27
68179;BME280;54998;42.656;23.382;2023-03-11T06:05:10;93118.25;;;9.66;62.82
68179;BME280;54998;42.656;23.382;2023-03-11T06:07:36;93124.88;;;9.90;62.61
68179;BME280;54998;42.656;23.382;2023-03-11T06:10:03;93121.25;;;9.99;62.30
68179;BME280;54998;42.656;23.382;2023-03-11T06:12:28;93126.38;;;9.84;62.62
68179;BME280;54998;42.656;23.382;2023-03-11T06:14:54;93121.53;;;9.90;62.64
68179;BME280;54998;42.656;23.382;2023-03-11T06:17:19;93120.91;;;9.58;63.48
68179;BME280;54998;42.656;23.382;2023-03-11T06:19:45;93115.00;;;9.72;64.14
68179;BME280;54998;42.656;23.382;2023-03-11T06:22:10;93116.16;;;9.70;63.70
68179;BME280;54998;42.656;23.382;2023-03-11T06:24:36;93115.78;;;9.73;63.84
68179;BME280;54998;42.656;23.382;2023-03-11T06:27:01;93114.91;;;9.65;64.44
68179;BME280;54998;42.656;23.382;2023-03-11T06:29:27;93128.06;;;9.33;65.02
68179;BME280;54998;42.656;23.382;2023-03-11T06:31:53;93123.38;;;9.36;65.48
68179;BME280;54998;42.656;23.382;2023-03-11T06:34:19;93120.91;;;9.43;65.70
68179;BME280;54998;42.656;23.382;2023-03-11T06:36:44;93122.34;;;9.45;65.46
68179;BME280;54998;42.656;23.382;2023-03-11T06:39:12;93124.38;;;9.50;65.65
68179;BME280;54998;42.656;23.382;2023-03-11T06:41:38;93125.41;;;9.41;65.24
68179;BME280;54998;42.656;23.382;2023-03-11T07:14:56;93115.75;;;10.54;60.21
68179;BME280;54998;42.656;23.382;2023-03-11T07:17:22;93123.53;;;10.39;60.81
68179;BME280;54998;42.656;23.382;2023-03-11T07:19:48;93121.81;;;10.46;60.56
68179;BME280;54998;42.656;23.382;2023-03-11T07:22:14;93129.59;;;10.74;59.83
68179;BME280;54998;42.656;23.382;2023-03-11T07:24:39;93113.06;;;10.40;61.31
68179;BME280;54998;42.656;23.382;2023-03-11T07:27:05;93114.69;;;10.63;60.38
68179;BME280;54998;42.656;23.382;2023-03-11T07:29:31;93112.59;;;10.95;59.17
68179;BME280;54998;42.656;23.382;2023-03-11T07:31:56;93106.91;;;10.78;60.26
68179;BME280;54998;42.656;23.382;2023-03-11T07:34:22;93104.41;;;10.84;59.88
68179;BME280;54998;42.656;23.382;2023-03-11T07:36:47;93107.53;;;11.08;57.83
68179;BME280;54998;42.656;23.382;2023-03-11T07:39:15;93102.47;;;11.71;56.85
68179;BME280;54998;42.656;23.382;2023-03-11T07:41:41;93098.72;;;11.39;55.88
68179;BME280;54998;42.656;23.382;2023-03-11T07:44:09;93087.38;;;11.61;55.72
68179;BME280;54998;42.656;23.382;2023-03-11T07:46:35;93090.34;;;11.93;54.85
68179;BME280;54998;42.656;23.382;2023-03-11T07:49:03;93086.72;;;11.87;55.95
68179;BME280;54998;42.656;23.382;2023-03-11T07:51:31;93058.47;;;13.09;52.05
68179;BME280;54998;42.656;23.382;2023-03-11T07:53:58;93059.78;;;14.30;48.72
68179;BME280;54998;42.656;23.382;2023-03-11T07:56:25;93065.06;;;16.41;41.47
68179;BME280;54998;42.656;23.382;2023-03-11T07:58:52;93049.97;;;14.45;46.25
68179;BME280;54998;42.656;23.382;2023-03-11T08:01:20;93046.75;;;14.50;45.93
68179;BME280;54998;42.656;23.382;2023-03-11T08:03:50;93051.59;;;16.20;42.21
68179;BME280;54998;42.656;23.382;2023-03-11T08:06:24;93049.41;;;18.19;38.48
68179;BME280;54998;42.656;23.382;2023-03-11T08:08:50;93047.03;;;17.54;38.71
68179;BME280;54998;42.656;23.382;2023-03-11T08:11:17;93031.19;;;19.39;36.58
68179;BME280;54998;42.656;23.382;2023-03-11T08:13:43;93034.56;;;21.69;31.47
68179;BME280;54998;42.656;23.382;2023-03-11T08:16:11;93025.97;;;18.14;36.66
68179;BME280;54998;42.656;23.382;2023-03-11T08:18:37;93018.94;;;17.86;38.02
68179;BME280;54998;42.656;23.382;2023-03-11T08:21:07;93009.13;;;19.25;36.36
68179;BME280;54998;42.656;23.382;2023-03-11T08:23:34;93016.50;;;20.11;34.48
68179;BME280;54998;42.656;23.382;2023-03-11T08:26:07;93002.19;;;19.86;34.56
68179;BME280;54998;42.656;23.382;2023-03-11T08:28:32;93008.38;;;17.52;36.57
68179;BME280;54998;42.656;23.382;2023-03-11T08:30:59;93002.19;;;17.30;37.00
68179;BME280;54998;42.656;23.382;2023-03-11T08:33:24;92992.06;;;18.33;35.46
68179;BME280;54998;42.656;23.382;2023-03-11T08:35:50;92993.47;;;17.83;35.91
68179;BME280;54998;42.656;23.382;2023-03-11T08:38:15;92993.25;;;18.76;34.44
68179;BME280;54998;42.656;23.382;2023-03-11T08:40:40;92991.00;;;20.95;31.20
68179;BME280;54998;42.656;23.382;2023-03-11T08:43:06;92975.69;;;19.95;32.32
68179;BME280;54998;42.656;23.382;2023-03-11T08:45:32;92973.03;;;18.61;33.98
68179;BME280;54998;42.656;23.382;2023-03-11T08:47:57;92980.25;;;18.87;34.46
68179;BME280;54998;42.656;23.382;2023-03-11T08:50:23;92970.34;;;20.28;32.26
68179;BME280;54998;42.656;23.382;2023-03-11T08:52:48;92970.16;;;21.37;29.90
68179;BME280;54998;42.656;23.382;2023-03-11T08:55:15;92964.19;;;19.90;32.27
68179;BME280;54998;42.656;23.382;2023-03-11T08:57:42;92960.00;;;21.99;29.49
68179;BME280;54998;42.656;23.382;2023-03-11T09:00:08;92955.97;;;20.53;29.59
68179;BME280;54998;42.656;23.382;2023-03-11T09:02:35;92954.03;;;19.89;31.51
68179;BME280;54998;42.656;23.382;2023-03-11T09:05:00;92959.44;;;19.82;31.98
68179;BME280;54998;42.656;23.382;2023-03-11T09:07:26;92954.53;;;18.57;34.32
68179;BME280;54998;42.656;23.382;2023-03-11T09:09:51;92941.00;;;18.72;33.58
68179;BME280;54998;42.656;23.382;2023-03-11T09:12:19;92953.38;;;19.38;33.16
68179;BME280;54998;42.656;23.382;2023-03-11T09:17:10;92936.81;;;21.44;29.58
68179;BME280;54998;42.656;23.382;2023-03-11T09:19:36;92956.38;;;20.40;31.11
68179;BME280;54998;42.656;23.382;2023-03-11T09:22:02;92950.34;;;18.56;33.64
68179;BME280;54998;42.656;23.382;2023-03-11T09:24:28;92933.06;;;18.16;35.18
68179;BME280;54998;42.656;23.382;2023-03-11T09:26:54;92937.94;;;17.32;36.27
68179;BME280;54998;42.656;23.382;2023-03-11T09:29:19;92935.63;;;16.83;37.67
68179;BME280;54998;42.656;23.382;2023-03-11T09:31:45;92937.13;;;17.43;36.93
68179;BME280;54998;42.656;23.382;2023-03-11T09:34:13;92944.22;;;19.13;34.29
68179;BME280;54998;42.656;23.382;2023-03-11T09:36:42;92941.72;;;19.40;33.53
68179;BME280;54998;42.656;23.382;2023-03-11T09:39:07;92936.19;;;18.01;36.18
68179;BME280;54998;42.656;23.382;2023-03-11T09:41:42;92933.13;;;20.33;32.70
68179;BME280;54998;42.656;23.382;2023-03-11T09:44:16;92934.19;;;20.32;32.34
68179;BME280;54998;42.656;23.382;2023-03-11T09:52:05;92935.44;;;21.89;30.05
68179;BME280;54998;42.656;23.382;2023-03-11T09:54:35;92899.63;;;21.74;29.73
68179;BME280;54998;42.656;23.382;2023-03-11T09:57:02;92894.16;;;20.76;29.82
68179;BME280;54998;42.656;23.382;2023-03-11T09:59:32;92896.09;;;17.80;35.26
68179;BME280;54998;42.656;23.382;2023-03-11T10:01:58;92889.44;;;19.86;31.86
68179;BME280;54998;42.656;23.382;2023-03-11T10:04:44;92882.69;;;19.85;31.57
68179;BME280;54998;42.656;23.382;2023-03-11T10:07:15;92924.53;;;20.33;30.76
68179;BME280;54998;42.656;23.382;2023-03-11T10:09:51;92903.81;;;20.48;29.54
68179;BME280;54998;42.656;23.382;2023-03-11T10:17:41;92930.81;;;19.82;30.62
68179;BME280;54998;42.656;23.382;2023-03-11T10:20:19;92922.31;;;19.92;30.67
68179;BME280;54998;42.656;23.382;2023-03-11T10:25:41;92921.78;;;20.77;28.84
68179;BME280;54998;42.656;23.382;2023-03-11T10:28:14;92924.31;;;21.04;28.32
68179;BME280;54998;42.656;23.382;2023-03-11T10:30:50;92913.66;;;20.41;29.28
68179;BME280;54998;42.656;23.382;2023-03-11T10:33:35;92948.38;;;18.46;32.16
68179;BME280;54998;42.656;23.382;2023-03-11T10:36:05;92945.84;;;17.77;33.64
68179;BME280;54998;42.656;23.382;2023-03-11T10:38:36;92926.94;;;15.93;36.73
68179;BME280;54998;42.656;23.382;2023-03-11T10:44:13;92947.13;;;18.03;33.79
68179;BME280;54998;42.656;23.382;2023-03-11T10:46:40;92936.28;;;17.66;34.35
68179;BME280;54998;42.656;23.382;2023-03-11T10:49:12;92939.41;;;16.80;35.85
68179;BME280;54998;42.656;23.382;2023-03-11T10:51:39;92942.03;;;17.16;35.51
68179;BME280;54998;42.656;23.382;2023-03-11T10:54:06;92955.03;;;16.74;36.96
68179;BME280;54998;42.656;23.382;2023-03-11T10:56:39;92959.66;;;15.69;38.88
68179;BME280;54998;42.656;23.382;2023-03-11T11:04:38;92962.72;;;13.97;42.60
68179;BME280;54998;42.656;23.382;2023-03-11T11:07:21;92980.28;;;13.68;43.53
68179;BME280;54998;42.656;23.382;2023-03-11T11:12:35;92969.41;;;14.36;42.17
68179;BME280;54998;42.656;23.382;2023-03-11T11:15:01;92970.28;;;14.81;41.11
68179;BME280;54998;42.656;23.382;2023-03-11T11:17:32;92963.47;;;15.48;40.74
68179;BME280;54998;42.656;23.382;2023-03-11T11:19:59;92971.63;;;17.43;36.45
68179;BME280;54998;42.656;23.382;2023-03-11T11:22:37;92962.19;;;17.78;36.18
68179;BME280;54998;42.656;23.382;2023-03-11T11:25:43;92960.50;;;17.08;36.51
68179;BME280;54998;42.656;23.382;2023-03-11T11:30:56;92951.16;;;15.99;39.62
68179;BME280;54998;42.656;23.382;2023-03-11T11:36:14;92946.53;;;15.52;41.65
68179;BME280;54998;42.656;23.382;2023-03-11T11:38:40;92945.38;;;14.43;45.10
68179;BME280;54998;42.656;23.382;2023-03-11T11:41:08;92930.78;;;14.80;46.42
68179;BME280;54998;42.656;23.382;2023-03-11T11:48:54;92922.25;;;13.97;44.69
68179;BME280;54998;42.656;23.382;2023-03-11T11:52:07;92909.31;;;14.54;43.87
68179;BME280;54998;42.656;23.382;2023-03-11T11:57:15;92889.28;;;15.97;40.03
68179;BME280;54998;42.656;23.382;2023-03-11T11:59:42;92895.34;;;17.28;37.68
68179;BME280;54998;42.656;23.382;2023-03-11T12:05:28;92888.50;;;18.53;33.97
68179;BME280;54998;42.656;23.382;2023-03-11T12:08:13;92897.09;;;17.79;34.55
68179;BME280;54998;42.656;23.382;2023-03-11T12:10:55;92893.75;;;17.67;34.74
68179;BME280;54998;42.656;23.382;2023-03-11T12:18:46;92843.09;;;17.76;32.92
68179;BME280;54998;42.656;23.382;2023-03-11T12:26:26;92864.31;;;18.19;32.04
68179;BME280;54998;42.656;23.382;2023-03-11T12:29:11;92859.22;;;17.78;32.55
68179;BME280;54998;42.656;23.382;2023-03-11T12:31:39;92869.75;;;18.51;31.22
68179;BME280;54998;42.656;23.382;2023-03-11T12:34:09;92872.00;;;17.97;32.44
68179;BME280;54998;42.656;23.382;2023-03-11T12:36:40;92890.66;;;17.53;33.05
68179;BME280;54998;42.656;23.382;2023-03-11T12:41:44;92869.53;;;16.15;36.68
68179;BME280;54998;42.656;23.382;2023-03-11T12:44:25;92869.38;;;15.19;39.21
68179;BME280;54998;42.656;23.382;2023-03-11T12:49:34;92891.97;;;14.68;41.24
68179;BME280;54998;42.656;23.382;2023-03-11T12:54:41;92896.22;;;14.31;40.99
68179;BME280;54998;42.656;23.382;2023-03-11T13:05:19;92903.84;;;14.94;40.38
68179;BME280;54998;42.656;23.382;2023-03-11T13:51:57;93024.97;;;10.48;63.69
68179;BME280;54998;42.656;23.382;2023-03-11T13:57:37;93032.94;;;10.60;64.22
68179;BME280;54998;42.656;23.382;2023-03-11T14:00:16;93052.00;;;10.14;64.75
68179;BME280;54998;42.656;23.382;2023-03-11T14:05:29;93051.00;;;10.08;67.86
68179;BME280;54998;42.656;23.382;2023-03-11T14:08:10;93031.56;;;9.84;68.68
68179;BME280;54998;42.656;23.382;2023-03-11T14:10:36;93032.50;;;10.13;68.50
68179;BME280;54998;42.656;23.382;2023-03-11T14:13:15;93029.06;;;10.27;68.58
68179;BME280;54998;42.656;23.382;2023-03-11T14:15:52;93032.78;;;10.40;66.13
68179;BME280;54998;42.656;23.382;2023-03-11T14:21:00;93048.31;;;9.80;69.68
68179;BME280;54998;42.656;23.382;2023-03-11T14:23:35;93055.38;;;9.63;70.10
68179;BME280;54998;42.656;23.382;2023-03-11T14:26:11;93047.63;;;9.72;70.63
68179;BME280;54998;42.656;23.382;2023-03-11T14:28:37;93053.91;;;10.05;69.47
68179;BME280;54998;42.656;23.382;2023-03-11T14:31:04;93044.50;;;10.13;68.96
68179;BME280;54998;42.656;23.382;2023-03-11T14:33:30;93044.75;;;10.33;68.12
68179;BME280;54998;42.656;23.382;2023-03-11T14:35:58;93064.00;;;10.65;66.17
68179;BME280;54998;42.656;23.382;2023-03-11T14:38:29;93053.84;;;10.57;66.11
68179;BME280;54998;42.656;23.382;2023-03-11T14:40:58;93058.16;;;10.78;65.49
68179;BME280;54998;42.656;23.382;2023-03-11T14:43:27;93058.47;;;10.89;64.29
68179;BME280;54998;42.656;23.382;2023-03-11T14:45:53;93054.72;;;11.20;64.11
68179;BME280;54998;42.656;23.382;2023-03-11T14:48:28;93054.13;;;11.18;62.70
68179;BME280;54998;42.656;23.382;2023-03-11T14:50:58;93061.50;;;11.28;62.24
68179;BME280;54998;42.656;23.382;2023-03-11T14:53:50;93068.34;;;11.21;61.67
68179;BME280;54998;42.656;23.382;2023-03-11T14:56:20;93073.91;;;11.24;62.89
68179;BME280;54998;42.656;23.382;2023-03-11T15:01:30;93077.38;;;10.88;65.28
68179;BME280;54998;42.656;23.382;2023-03-11T15:06:29;93073.75;;;10.55;67.77
68179;BME280;54998;42.656;23.382;2023-03-11T15:09:15;93094.44;;;10.53;67.71
68179;BME280;54998;42.656;23.382;2023-03-11T15:16:49;93109.72;;;9.74;70.68
68179;BME280;54998;42.656;23.382;2023-03-11T15:21:52;93126.97;;;9.27;73.60
68179;BME280;54998;42.656;23.382;2023-03-11T15:24:25;93128.41;;;8.92;74.56
68179;BME280;54998;42.656;23.382;2023-03-11T15:27:19;93135.25;;;8.91;75.82
68179;BME280;54998;42.656;23.382;2023-03-11T15:29:49;93140.16;;;8.78;76.35
68179;BME280;54998;42.656;23.382;2023-03-11T15:35:15;93157.13;;;8.48;77.34
68179;BME280;54998;42.656;23.382;2023-03-11T15:37:41;93162.94;;;8.41;77.94
68179;BME280;54998;42.656;23.382;2023-03-11T15:40:25;93164.38;;;8.36;78.57
68179;BME280;54998;42.656;23.382;2023-03-11T15:43:25;93180.88;;;8.25;79.49
68179;BME280;54998;42.656;23.382;2023-03-11T15:45:51;93189.81;;;8.21;80.12
68179;BME280;54998;42.656;23.382;2023-03-11T15:48:19;93187.78;;;8.16;80.73
68179;BME280;54998;42.656;23.382;2023-03-11T15:50:50;93193.41;;;8.03;80.92
68179;BME280;54998;42.656;23.382;2023-03-11T15:53:16;93197.25;;;7.99;81.16
68179;BME280;54998;42.656;23.382;2023-03-11T15:55:41;93204.47;;;7.96;81.69